Portada
METAR-TAF:

METAR-TAF

Aeroports :

Kōchi, Japó

latitud: 33-32N, longitud: 133-40E, altitud: 7 m

Observació

L'informe es va fer fa 43 minuts, a les 01:00 UTC
Vent 3 kt del Nord, variant entre Oest i Nord/Nord-Est
Temperatura 21°C
Humitat 60%
Pressió 1019 hPa
Visibilitat 10 km o més
Escasses núvols a una alçada de 3000 ft

METAR: RJOK 270100Z 35003KT 280V030 9999 FEW030 21/13 Q1019

Hora: 10:43 (01:43 UTC)

Pronòstic

L'informe es va fer fa 2 hores i 38 minuts, a les 23:05 UTC
Pronòstic vàlid del 27 a les 00 UTC al 28 a les 06 UTC
Vent 5 kt del Nord/Nord-Oest
Visibilitat 10 km o més
Escasses núvols a una alçada de 3000 ft
Evolucionant progressivament
l' 27 a les 01 UTC al 27 a les 03 UTC
Vent 8 kt del Sud
Evolucionant progressivament
l' 27 a les 07 UTC al 27 a les 09 UTC
Vent 7 kt del Nord
Evolucionant progressivament
l' 28 a les 00 UTC al 28 a les 03 UTC
Vent 5 kt del Sud

TAF: RJOK 262305Z 2700/2806 33005KT 9999 FEW030 BECMG 2701/2703 18008KT BECMG 2707/2709 36007KT BECMG 2800/2803 18005KT

Observacions i pronòstics meteorològics de més de 4000 aeroports (METAR i TAF).

Les estacions disponibles són els punts grocs i vermells al mapa.

Posi el ratolí al punt desitjat per veure el nom de l'estació.

Feu clic per veure les observacions i els pronòstics meteorològics.

Per canviar el mapa: feu clic els botons verds amb una creu de color negre per apropar; al botó verd amb un guió per allunyar la imatge; o en les fletxes verdes per a mapes adjacents.


METAR-TAF: